createdAt,value
2023-09-08T00:02:28.852Z,14.92
2023-09-08T00:04:55.791Z,14.86
2023-09-08T00:07:22.392Z,14.72
2023-09-08T00:09:48.949Z,14.75
2023-09-08T00:12:15.502Z,14.83
2023-09-08T00:14:42.054Z,14.82
2023-09-08T00:17:08.691Z,14.74
2023-09-08T00:19:35.305Z,14.61
2023-09-08T00:22:01.913Z,14.61
2023-09-08T00:24:28.379Z,14.52
2023-09-08T00:26:54.994Z,14.55
2023-09-08T00:29:21.451Z,14.42
2023-09-08T00:31:47.926Z,14.38
2023-09-08T00:34:14.408Z,14.42
2023-09-08T00:36:40.977Z,14.27
2023-09-08T00:39:07.405Z,14.28
2023-09-08T00:41:34.515Z,14.32
2023-09-08T00:44:01.042Z,14.29
2023-09-08T00:46:29.503Z,14.24
2023-09-08T00:48:57.117Z,14.26
2023-09-08T00:51:23.642Z,14.13
2023-09-08T00:53:51.138Z,14.21
2023-09-08T00:56:17.776Z,14.16
2023-09-08T00:58:44.638Z,14.11
2023-09-08T01:01:11.155Z,14.17
2023-09-08T01:03:37.946Z,14.23
2023-09-08T01:06:05.243Z,14.21
2023-09-08T01:08:32.136Z,14.24
2023-09-08T01:10:59.023Z,14.19
2023-09-08T01:13:25.557Z,14.13
2023-09-08T01:15:52.064Z,14.18
2023-09-08T01:18:18.624Z,14.03
2023-09-08T01:20:57.348Z,13.98
2023-09-08T01:23:47.123Z,14.01
2023-09-08T01:26:19.721Z,13.91
2023-09-08T01:28:50.889Z,13.89
2023-09-08T01:31:18.495Z,13.21
2023-09-08T01:33:46.522Z,13.85
2023-09-08T01:36:14.606Z,13.79
2023-09-08T01:38:43.305Z,13.71
2023-09-08T01:41:10.618Z,13.70
2023-09-08T01:43:37.280Z,13.65
2023-09-08T01:46:03.970Z,13.70
2023-09-08T01:53:46.829Z,13.58
2023-09-08T01:56:13.329Z,13.50
2023-09-08T01:58:39.832Z,13.43
2023-09-08T02:01:07.037Z,13.57
2023-09-08T02:03:34.148Z,13.63
2023-09-08T02:06:01.038Z,13.64
2023-09-08T02:08:27.507Z,13.58
2023-09-08T02:10:53.981Z,13.40
2023-09-08T02:13:20.484Z,13.46
2023-09-08T02:15:47.056Z,13.46
2023-09-08T02:18:14.345Z,13.57
2023-09-08T02:20:40.949Z,13.60
2023-09-08T02:23:08.796Z,13.58
2023-09-08T02:25:35.488Z,13.33
2023-09-08T02:28:02.267Z,13.42
2023-09-08T02:30:28.809Z,13.42
2023-09-08T02:32:56.318Z,13.43
2023-09-08T02:35:25.658Z,13.35
2023-09-08T02:37:52.255Z,13.32
2023-09-08T02:40:20.146Z,13.42
2023-09-08T02:42:46.673Z,13.27
2023-09-08T02:45:13.262Z,13.18
2023-09-08T02:47:39.805Z,13.34
2023-09-08T02:50:06.588Z,13.29
2023-09-08T02:52:33.010Z,13.22
2023-09-08T02:54:59.417Z,13.16
2023-09-08T02:57:25.861Z,13.14
2023-09-08T02:59:52.533Z,13.10
2023-09-08T03:02:19.134Z,13.15
2023-09-08T03:04:45.707Z,13.08
2023-09-08T03:07:12.204Z,13.04
2023-09-08T03:09:39.734Z,13.25
2023-09-08T03:12:06.314Z,13.22
2023-09-08T03:14:32.734Z,13.17
2023-09-08T03:16:59.277Z,13.22
2023-09-08T03:19:25.724Z,13.25
2023-09-08T03:21:52.286Z,13.07
2023-09-08T03:24:18.777Z,13.16
2023-09-08T03:26:45.329Z,13.01
2023-09-08T03:29:11.967Z,13.11
2023-09-08T03:31:38.516Z,13.10
2023-09-08T03:34:05.208Z,13.07
2023-09-08T03:36:32.180Z,12.87
2023-09-08T03:38:59.273Z,12.97
2023-09-08T03:41:26.341Z,12.95
2023-09-08T03:43:52.763Z,12.58
2023-09-08T03:46:19.313Z,12.58
2023-09-08T03:48:45.891Z,12.71
2023-09-08T03:51:12.376Z,12.81
2023-09-08T03:53:39.155Z,12.74
2023-09-08T03:56:06.004Z,12.84
2023-09-08T03:58:32.486Z,12.85
2023-09-08T04:00:59.200Z,12.81
2023-09-08T04:03:27.104Z,12.82
2023-09-08T04:05:53.993Z,12.94
2023-09-08T04:08:20.436Z,12.81
2023-09-08T04:10:46.898Z,12.79
2023-09-08T04:13:13.327Z,12.74
2023-09-08T04:15:39.906Z,12.82
2023-09-08T04:18:07.451Z,12.70
2023-09-08T04:20:34.859Z,12.92
2023-09-08T04:23:01.281Z,12.77
2023-09-08T04:25:27.761Z,12.57
2023-09-08T04:27:54.190Z,12.67
2023-09-08T04:30:20.723Z,12.87
2023-09-08T04:32:47.305Z,12.88
2023-09-08T04:35:13.858Z,12.81
2023-09-08T04:37:41.144Z,12.76
2023-09-08T04:40:11.009Z,12.89
2023-09-08T04:42:37.639Z,12.77
2023-09-08T04:45:04.689Z,12.80
2023-09-08T04:47:31.493Z,12.82
2023-09-08T04:49:58.005Z,12.67
2023-09-08T04:52:24.449Z,12.86
2023-09-08T04:54:50.856Z,12.85
2023-09-08T04:57:23.447Z,12.86
2023-09-08T04:59:51.017Z,13.00
2023-09-08T05:02:19.324Z,12.81
2023-09-08T05:04:45.950Z,12.43
2023-09-08T05:07:14.352Z,12.70
2023-09-08T05:09:40.986Z,12.78
2023-09-08T05:12:07.710Z,12.77
2023-09-08T05:14:34.229Z,12.74
2023-09-08T05:17:00.754Z,12.82
2023-09-08T05:19:27.211Z,12.79
2023-09-08T05:21:56.054Z,12.89
2023-09-08T05:24:22.872Z,12.85
2023-09-08T05:26:49.569Z,12.90
2023-09-08T05:29:16.124Z,12.98
2023-09-08T05:31:43.026Z,13.12
2023-09-08T05:34:09.472Z,13.24
2023-09-08T05:36:39.047Z,13.24
2023-09-08T05:39:06.431Z,13.40
2023-09-08T05:41:34.816Z,13.33
2023-09-08T05:44:01.866Z,13.35
2023-09-08T05:46:28.498Z,13.43
2023-09-08T05:48:54.987Z,13.51
2023-09-08T05:51:21.493Z,13.83
2023-09-08T05:53:48.584Z,13.92
2023-09-08T05:56:15.140Z,14.03
2023-09-08T05:58:41.616Z,14.00
2023-09-08T06:01:08.512Z,14.40
2023-09-08T06:03:35.368Z,14.39
2023-09-08T06:06:01.910Z,14.55
2023-09-08T06:08:28.345Z,14.60
2023-09-08T06:10:54.779Z,14.73
2023-09-08T06:13:22.003Z,14.77
2023-09-08T06:15:48.507Z,14.94
2023-09-08T06:18:15.067Z,14.95
2023-09-08T06:20:46.105Z,15.10
2023-09-08T06:23:12.587Z,15.09
2023-09-08T06:25:39.133Z,15.00
2023-09-08T06:28:05.761Z,15.25
2023-09-08T06:30:32.335Z,15.15
2023-09-08T06:33:00.111Z,15.38
2023-09-08T06:35:27.518Z,15.56
2023-09-08T06:37:53.986Z,15.48
2023-09-08T06:40:20.492Z,15.52
2023-09-08T06:42:47.073Z,15.69
2023-09-08T06:45:15.115Z,15.75
2023-09-08T06:47:41.682Z,15.75
2023-09-08T06:50:08.529Z,15.90
2023-09-08T06:52:34.970Z,15.97
2023-09-08T06:55:01.508Z,16.24
2023-09-08T06:57:28.015Z,16.23
2023-09-08T06:59:54.453Z,16.30
2023-09-08T07:02:21.021Z,16.47
2023-09-08T07:04:48.566Z,16.63
2023-09-08T07:07:15.209Z,16.74
2023-09-08T07:09:41.685Z,16.75
2023-09-08T07:12:08.308Z,16.76
2023-09-08T07:14:34.758Z,17.20
2023-09-08T07:17:01.397Z,17.00
2023-09-08T07:19:28.594Z,17.28
2023-09-08T07:21:55.375Z,17.43
2023-09-08T07:24:23.056Z,17.65
2023-09-08T07:26:51.795Z,17.69
2023-09-08T07:29:19.690Z,17.92
2023-09-08T07:31:46.246Z,17.92
2023-09-08T07:34:12.749Z,17.98
2023-09-08T07:36:39.659Z,18.15
2023-09-08T07:39:06.328Z,18.48
2023-09-08T07:41:32.844Z,18.41
2023-09-08T07:43:59.456Z,18.69
2023-09-08T07:46:26.186Z,18.73
2023-09-08T07:48:53.593Z,18.72
2023-09-08T07:51:20.176Z,18.75
2023-09-08T07:53:46.983Z,18.75
2023-09-08T07:56:13.639Z,18.86
2023-09-08T07:58:40.906Z,19.03
2023-09-08T08:01:07.536Z,19.10
2023-09-08T08:03:36.014Z,19.18
2023-09-08T08:08:40.151Z,19.47
2023-09-08T08:11:14.585Z,19.53
2023-09-08T08:13:41.070Z,19.60
2023-09-08T08:16:08.661Z,19.74
2023-09-08T08:18:35.640Z,20.09
2023-09-08T08:21:04.436Z,20.22
2023-09-08T08:23:32.081Z,20.33
2023-09-08T08:25:59.923Z,20.53
2023-09-08T08:28:26.952Z,20.55
2023-09-08T08:30:53.580Z,20.63
2023-09-08T08:33:22.107Z,20.67
2023-09-08T08:35:52.244Z,20.84
2023-09-08T08:38:18.969Z,20.83
2023-09-08T08:40:45.631Z,20.99
2023-09-08T08:43:12.387Z,21.06
2023-09-08T08:45:42.913Z,21.13
2023-09-08T08:48:10.074Z,21.21
2023-09-08T08:50:38.583Z,21.18
2023-09-08T08:53:05.441Z,21.20
2023-09-08T08:55:32.177Z,21.39
2023-09-08T08:58:06.925Z,21.58
2023-09-08T09:00:39.741Z,21.55
2023-09-08T09:03:15.261Z,21.57
2023-09-08T09:05:46.809Z,21.84
2023-09-08T09:08:17.932Z,21.96
2023-09-08T09:10:46.224Z,22.08
2023-09-08T09:13:12.666Z,22.05
2023-09-08T09:15:41.520Z,21.96
2023-09-08T09:18:09.272Z,22.11
2023-09-08T09:20:37.173Z,22.32
2023-09-08T09:23:04.547Z,22.63
2023-09-08T09:25:33.562Z,22.64
2023-09-08T09:28:02.725Z,22.86
2023-09-08T09:30:48.720Z,23.11
2023-09-08T09:33:15.576Z,22.97
2023-09-08T09:35:47.091Z,23.38
2023-09-08T09:38:15.463Z,23.45
2023-09-08T09:40:42.070Z,23.42
2023-09-08T09:43:09.254Z,23.71
2023-09-08T09:45:37.391Z,23.71
2023-09-08T09:48:05.646Z,23.85
2023-09-08T09:50:41.063Z,24.08
2023-09-08T09:53:13.887Z,24.15
2023-09-08T09:55:43.894Z,24.22
2023-09-08T09:58:13.852Z,24.24
2023-09-08T10:00:48.618Z,24.51
2023-09-08T10:03:19.648Z,24.22
2023-09-08T10:05:49.232Z,24.38
2023-09-08T10:08:15.872Z,24.47
2023-09-08T10:10:47.218Z,24.67
2023-09-08T10:13:16.801Z,24.81
2023-09-08T10:15:43.570Z,24.99
2023-09-08T10:18:13.295Z,25.01
2023-09-08T10:20:41.635Z,25.06
2023-09-08T10:23:19.891Z,25.32
2023-09-08T10:25:55.190Z,25.46
2023-09-08T10:28:28.881Z,25.42
2023-09-08T10:30:57.002Z,25.55
2023-09-08T10:33:27.661Z,25.55
2023-09-08T10:35:56.107Z,25.58
2023-09-08T10:38:25.550Z,25.71
2023-09-08T10:41:11.367Z,25.66
2023-09-08T10:43:38.921Z,25.69
2023-09-08T10:46:12.779Z,25.63
2023-09-08T10:48:45.878Z,25.86
2023-09-08T10:51:16.041Z,25.86
2023-09-08T10:53:42.578Z,25.87
2023-09-08T10:56:17.823Z,25.75
2023-09-08T10:58:51.653Z,25.81
2023-09-08T11:01:20.467Z,25.88
2023-09-08T11:03:50.995Z,26.14
2023-09-08T11:06:23.464Z,26.07
2023-09-08T11:08:54.483Z,26.17
2023-09-08T11:11:21.234Z,25.92
2023-09-08T11:13:49.914Z,26.13
2023-09-08T11:16:17.033Z,26.42
2023-09-08T11:18:44.921Z,26.29
2023-09-08T11:21:12.284Z,26.37
2023-09-08T11:23:40.162Z,26.38
2023-09-08T11:26:09.985Z,26.22
2023-09-08T11:28:37.521Z,26.25
2023-09-08T11:31:04.749Z,26.18
2023-09-08T11:33:42.327Z,26.20
2023-09-08T11:36:20.463Z,26.24
2023-09-08T11:38:49.269Z,26.19
2023-09-08T11:41:15.845Z,26.44
2023-09-08T11:43:42.719Z,26.55
2023-09-08T11:46:11.805Z,26.66
2023-09-08T11:48:38.999Z,26.62
2023-09-08T11:51:08.095Z,26.52
2023-09-08T11:53:34.784Z,26.33
2023-09-08T11:56:01.644Z,26.34
2023-09-08T11:58:28.518Z,26.30
2023-09-08T12:00:55.152Z,26.60
2023-09-08T12:03:22.783Z,26.64
2023-09-08T12:05:53.422Z,26.70
2023-09-08T12:08:20.298Z,26.76
2023-09-08T12:10:50.846Z,26.78
2023-09-08T12:13:24.801Z,26.93
2023-09-08T12:15:51.491Z,26.89
2023-09-08T12:18:18.147Z,27.18
2023-09-08T12:21:06.023Z,27.32
2023-09-08T12:23:32.540Z,27.09
2023-09-08T12:25:59.108Z,27.38
2023-09-08T12:28:31.621Z,27.06
2023-09-08T12:30:58.136Z,27.03
2023-09-08T12:33:27.396Z,27.42
2023-09-08T12:35:54.830Z,27.04
2023-09-08T12:38:24.492Z,27.26
2023-09-08T12:40:50.990Z,27.38
2023-09-08T12:43:26.741Z,27.38
2023-09-08T12:45:54.988Z,27.47
2023-09-08T12:48:21.817Z,27.56
2023-09-08T12:50:49.905Z,27.65
2023-09-08T12:53:18.866Z,27.55
2023-09-08T12:55:45.400Z,27.29
2023-09-08T12:58:11.824Z,27.19
2023-09-08T13:00:45.268Z,27.16
2023-09-08T13:03:11.806Z,27.06
2023-09-08T13:05:39.848Z,27.32
2023-09-08T13:08:06.921Z,27.48
2023-09-08T13:10:33.420Z,27.35
2023-09-08T13:12:59.903Z,27.56
2023-09-08T13:15:26.402Z,27.63
2023-09-08T13:17:52.905Z,27.48
2023-09-08T13:20:21.546Z,27.23
2023-09-08T13:22:48.416Z,27.36
2023-09-08T13:25:15.199Z,27.36
2023-09-08T13:27:42.291Z,27.60
2023-09-08T13:30:16.210Z,27.50
2023-09-08T13:32:43.881Z,27.37
2023-09-08T13:35:16.495Z,27.45
2023-09-08T13:37:43.608Z,27.56
2023-09-08T13:40:10.468Z,27.63
2023-09-08T13:42:37.307Z,27.92
2023-09-08T13:45:04.770Z,27.66
2023-09-08T13:47:32.322Z,27.71
2023-09-08T13:50:01.751Z,28.08
2023-09-08T13:52:31.973Z,28.13
2023-09-08T13:57:29.646Z,28.12
2023-09-08T13:59:57.668Z,28.09
2023-09-08T14:04:55.766Z,27.83
2023-09-08T14:07:27.762Z,27.72
2023-09-08T14:12:34.258Z,27.86
2023-09-08T14:15:02.620Z,27.81
2023-09-08T14:17:29.113Z,27.96
2023-09-08T14:19:55.631Z,27.88
2023-09-08T14:22:22.124Z,27.82
2023-09-08T14:24:48.737Z,28.03
2023-09-08T14:27:15.290Z,28.08
2023-09-08T14:29:41.725Z,28.11
2023-09-08T14:32:08.155Z,27.86
2023-09-08T14:34:41.566Z,27.90
2023-09-08T14:37:11.059Z,28.06
2023-09-08T14:39:38.253Z,28.03
2023-09-08T14:42:06.025Z,28.04
2023-09-08T14:44:32.521Z,28.00
2023-09-08T14:46:58.987Z,28.09
2023-09-08T14:49:25.430Z,27.80
2023-09-08T14:51:51.899Z,27.71
2023-09-08T14:54:19.285Z,28.02
2023-09-08T14:56:45.725Z,27.89
2023-09-08T14:59:12.159Z,27.91
2023-09-08T15:01:41.719Z,27.89
2023-09-08T15:04:08.401Z,27.81
2023-09-08T15:06:34.976Z,27.88
2023-09-08T15:09:01.435Z,27.94
2023-09-08T15:11:28.062Z,27.86
2023-09-08T15:13:54.652Z,27.88
2023-09-08T15:16:22.398Z,27.85
2023-09-08T15:18:49.016Z,27.84
2023-09-08T15:21:15.592Z,27.81
2023-09-08T15:23:42.160Z,27.63
2023-09-08T15:26:08.712Z,27.99
2023-09-08T15:28:37.324Z,28.00
2023-09-08T15:31:04.180Z,28.28
2023-09-08T15:33:30.920Z,28.26
2023-09-08T15:35:57.646Z,28.35
2023-09-08T15:38:24.153Z,28.22
2023-09-08T15:41:09.124Z,28.30
2023-09-08T15:43:38.524Z,28.41
2023-09-08T15:46:09.044Z,28.28
2023-09-08T15:48:35.930Z,28.22
2023-09-08T15:51:02.545Z,28.49
2023-09-08T15:53:29.076Z,28.35
2023-09-08T15:55:56.194Z,28.40
2023-09-08T15:58:22.833Z,28.43
2023-09-08T16:00:51.478Z,28.25
2023-09-08T16:03:18.220Z,27.83
2023-09-08T16:05:44.801Z,28.17
2023-09-08T16:08:11.251Z,27.99
2023-09-08T16:10:37.654Z,28.02
2023-09-08T16:13:04.482Z,28.00
2023-09-08T16:15:31.101Z,27.48
2023-09-08T16:18:00.180Z,27.31
2023-09-08T16:20:26.754Z,27.30
2023-09-08T16:22:53.284Z,27.73
2023-09-08T16:25:19.696Z,27.67
2023-09-08T16:27:46.583Z,27.74
2023-09-08T16:30:13.565Z,27.85
2023-09-08T16:32:41.043Z,27.60
2023-09-08T16:35:08.208Z,27.35
2023-09-08T16:37:34.844Z,27.11
2023-09-08T16:40:01.437Z,26.92
2023-09-08T16:42:28.070Z,26.81
2023-09-08T16:44:54.614Z,26.67
2023-09-08T16:47:21.607Z,26.51
2023-09-08T16:49:48.138Z,26.33
2023-09-08T16:52:14.594Z,26.22
2023-09-08T16:54:41.071Z,26.13
2023-09-08T16:57:07.601Z,26.06
2023-09-08T16:59:34.135Z,25.80
2023-09-08T17:02:00.610Z,25.89
2023-09-08T17:04:28.103Z,25.72
2023-09-08T17:06:54.787Z,25.53
2023-09-08T17:09:21.252Z,25.33
2023-09-08T17:11:47.816Z,25.32
2023-09-08T17:14:14.263Z,25.06
2023-09-08T17:16:40.717Z,24.96
2023-09-08T17:19:07.257Z,24.87
2023-09-08T17:21:33.695Z,24.53
2023-09-08T17:24:00.169Z,24.50
2023-09-08T17:26:26.673Z,24.31
2023-09-08T17:28:53.140Z,24.32
2023-09-08T17:31:19.591Z,23.99
2023-09-08T17:33:46.113Z,24.32
2023-09-08T17:36:12.676Z,24.05
2023-09-08T17:38:39.181Z,23.89
2023-09-08T17:41:05.689Z,23.71
2023-09-08T17:43:32.169Z,23.52
2023-09-08T17:46:04.638Z,23.29
2023-09-08T17:48:31.806Z,23.23
2023-09-08T17:50:58.386Z,23.01
2023-09-08T17:53:24.845Z,22.92
2023-09-08T17:55:51.281Z,22.77
2023-09-08T17:58:17.731Z,22.52
2023-09-08T18:00:44.221Z,22.36
2023-09-08T18:03:14.504Z,22.13
2023-09-08T18:05:42.787Z,21.76
2023-09-08T18:08:09.319Z,21.87
2023-09-08T18:10:35.836Z,21.81
2023-09-08T18:13:02.391Z,21.71
2023-09-08T18:15:28.903Z,21.60
2023-09-08T18:17:55.367Z,21.58
2023-09-08T18:20:21.869Z,21.48
2023-09-08T18:22:48.320Z,21.54
2023-09-08T18:25:14.825Z,21.39
2023-09-08T18:27:41.309Z,21.25
2023-09-08T18:30:08.179Z,21.11
2023-09-08T18:32:35.017Z,21.06
2023-09-08T18:35:01.476Z,20.94
2023-09-08T18:37:27.928Z,20.83
2023-09-08T18:39:54.556Z,20.69
2023-09-08T18:42:20.994Z,20.67
2023-09-08T18:44:47.478Z,20.61
2023-09-08T18:47:13.927Z,20.49
2023-09-08T18:49:40.563Z,20.51
2023-09-08T18:52:07.050Z,20.40
2023-09-08T18:54:33.646Z,20.47
2023-09-08T18:57:00.226Z,20.54
2023-09-08T18:59:26.685Z,20.47
2023-09-08T19:01:54.617Z,20.43
2023-09-08T19:04:21.141Z,20.25
2023-09-08T19:06:47.578Z,20.17
2023-09-08T19:09:14.025Z,20.27
2023-09-08T19:11:40.509Z,20.02
2023-09-08T19:14:10.304Z,20.04
2023-09-08T19:16:36.849Z,20.01
2023-09-08T19:19:03.418Z,19.88
2023-09-08T19:21:29.914Z,19.90
2023-09-08T19:23:56.375Z,19.81
2023-09-08T19:26:22.786Z,19.72
2023-09-08T19:28:53.307Z,19.67
2023-09-08T19:31:19.921Z,19.61
2023-09-08T19:33:46.644Z,19.83
2023-09-08T19:36:13.125Z,19.46
2023-09-08T19:38:39.608Z,19.43
2023-09-08T19:41:08.232Z,19.36
2023-09-08T19:43:35.057Z,19.31
2023-09-08T19:46:05.585Z,19.20
2023-09-08T19:48:34.867Z,19.16
2023-09-08T19:51:08.067Z,19.11
2023-09-08T19:53:34.865Z,19.05
2023-09-08T19:56:02.832Z,18.96
2023-09-08T19:58:29.780Z,18.97
2023-09-08T20:01:05.051Z,18.60
2023-09-08T20:03:31.733Z,18.81
2023-09-08T20:05:58.377Z,18.79
2023-09-08T20:08:25.815Z,18.78
2023-09-08T20:10:53.854Z,18.77
2023-09-08T20:13:21.377Z,18.67
2023-09-08T20:15:58.156Z,18.75
2023-09-08T20:18:24.746Z,18.70
2023-09-08T20:20:55.572Z,18.78
2023-09-08T20:23:22.674Z,18.79
2023-09-08T20:25:49.147Z,18.71
2023-09-08T20:28:15.688Z,18.63
2023-09-08T20:30:42.393Z,18.53
2023-09-08T20:33:08.900Z,18.59
2023-09-08T20:35:36.880Z,18.50
2023-09-08T20:38:04.621Z,18.36
2023-09-08T20:40:31.544Z,18.30
2023-09-08T20:42:58.681Z,18.28
2023-09-08T20:45:25.244Z,18.11
2023-09-08T20:47:51.791Z,18.24
2023-09-08T20:50:18.570Z,18.09
2023-09-08T20:52:45.058Z,18.10
2023-09-08T20:55:11.642Z,17.38
2023-09-08T20:57:38.491Z,17.93
2023-09-08T21:00:05.433Z,17.92
2023-09-08T21:02:32.142Z,17.80
2023-09-08T21:04:58.736Z,17.88
2023-09-08T21:39:41.024Z,17.37
2023-09-08T21:42:08.637Z,17.46
2023-09-08T21:44:35.184Z,17.49
2023-09-08T21:47:05.388Z,17.52
2023-09-08T21:49:32.484Z,17.40
2023-09-08T21:52:02.242Z,17.18
2023-09-08T21:54:28.811Z,17.10
2023-09-08T21:56:55.354Z,17.09
2023-09-08T21:59:21.851Z,16.90
2023-09-08T22:01:48.374Z,16.89
2023-09-08T22:04:15.134Z,16.92
2023-09-08T22:06:43.854Z,16.89
2023-09-08T22:09:10.559Z,16.72
2023-09-08T22:11:37.052Z,16.83
2023-09-08T22:14:03.767Z,16.94
2023-09-08T22:16:32.376Z,16.72
2023-09-08T22:18:59.671Z,16.55
2023-09-08T22:21:26.196Z,16.65
2023-09-08T22:23:53.872Z,16.65
2023-09-08T22:26:22.044Z,16.77
2023-09-08T22:28:48.939Z,16.71
2023-09-08T22:31:16.123Z,16.66
2023-09-08T22:33:43.535Z,16.62
2023-09-08T22:36:10.459Z,16.66
2023-09-08T22:38:37.688Z,16.68
2023-09-08T22:41:04.164Z,16.49
2023-09-08T22:43:30.588Z,16.42
2023-09-08T22:45:57.074Z,16.38
2023-09-08T22:48:24.275Z,16.29
2023-09-08T22:50:51.063Z,16.40
2023-09-08T22:53:18.380Z,16.35
2023-09-08T22:55:46.275Z,16.19
2023-09-08T22:58:16.113Z,16.15
2023-09-08T23:00:42.848Z,16.05
2023-09-08T23:03:09.941Z,15.99
2023-09-08T23:05:36.499Z,16.12
2023-09-08T23:08:03.244Z,16.14
2023-09-08T23:10:29.753Z,15.95
2023-09-08T23:12:56.302Z,16.02
2023-09-08T23:15:23.500Z,15.99
2023-09-08T23:17:49.971Z,16.02
2023-09-08T23:20:16.633Z,16.02
2023-09-08T23:22:44.826Z,16.07
2023-09-08T23:25:11.744Z,16.15
2023-09-08T23:27:38.683Z,16.10
2023-09-08T23:30:06.205Z,16.04
2023-09-08T23:32:32.877Z,15.98
2023-09-08T23:35:00.419Z,15.99
2023-09-08T23:37:26.970Z,15.95
2023-09-08T23:39:53.449Z,15.91
2023-09-08T23:42:20.422Z,15.89
2023-09-08T23:44:46.923Z,15.74
2023-09-08T23:47:13.799Z,15.71
2023-09-08T23:49:40.431Z,15.67
2023-09-08T23:52:06.875Z,15.60
2023-09-08T23:54:33.372Z,15.62
2023-09-08T23:57:00.708Z,15.70
2023-09-08T23:59:27.383Z,15.65
